createdAt,value
2018-05-03T00:00:19.042Z,1008.61
2018-05-03T00:01:19.100Z,1008.61
2018-05-03T00:02:19.162Z,1008.60
2018-05-03T00:03:19.226Z,1008.61
2018-05-03T00:04:19.314Z,1008.62
2018-05-03T00:05:19.356Z,1008.62
2018-05-03T00:06:19.419Z,1008.63
2018-05-03T00:07:19.482Z,1008.66
2018-05-03T00:08:19.551Z,1008.63
2018-05-03T00:09:19.617Z,1008.65
2018-05-03T00:10:19.679Z,1008.60
2018-05-03T00:11:19.734Z,1008.66
2018-05-03T00:12:19.798Z,1008.64
2018-05-03T00:13:19.863Z,1008.70
2018-05-03T00:14:19.941Z,1008.68
2018-05-03T00:15:20.061Z,1008.71
2018-05-03T00:16:20.051Z,1008.72
2018-05-03T00:17:20.119Z,1008.76
2018-05-03T00:18:20.195Z,1008.80
2018-05-03T00:19:20.247Z,1008.77
2018-05-03T00:20:20.325Z,1008.77
2018-05-03T00:21:20.371Z,1008.76
2018-05-03T00:22:20.439Z,1008.73
2018-05-03T00:23:20.500Z,1008.70
2018-05-03T00:24:20.560Z,1008.73
2018-05-03T00:25:20.636Z,1008.77
2018-05-03T00:26:20.695Z,1008.73
2018-05-03T00:27:20.756Z,1008.76
2018-05-03T00:28:20.819Z,1008.75
2018-05-03T00:29:20.881Z,1008.74
2018-05-03T00:30:20.952Z,1008.83
2018-05-03T00:31:21.019Z,1008.76
2018-05-03T00:32:21.072Z,1008.83
2018-05-03T00:33:21.135Z,1008.80
2018-05-03T00:34:21.200Z,1008.80
2018-05-03T00:35:21.264Z,1008.81
2018-05-03T00:36:21.340Z,1008.81
2018-05-03T00:37:21.392Z,1008.81
2018-05-03T00:38:21.451Z,1008.84
2018-05-03T00:39:21.516Z,1008.86
2018-05-03T00:40:21.587Z,1008.89
2018-05-03T00:41:21.655Z,1008.91
2018-05-03T00:42:21.716Z,1008.93
2018-05-03T00:43:21.772Z,1008.91
2018-05-03T00:44:21.836Z,1008.91
2018-05-03T00:45:21.900Z,1008.92
2018-05-03T00:46:21.968Z,1008.94
2018-05-03T00:47:22.032Z,1008.93
2018-05-03T00:48:22.092Z,1008.92
2018-05-03T00:49:22.152Z,1008.91
2018-05-03T00:50:22.217Z,1008.92
2018-05-03T00:51:22.300Z,1008.94
2018-05-03T00:52:22.348Z,1008.94
2018-05-03T00:53:22.409Z,1008.94
2018-05-03T00:54:22.473Z,1008.92
2018-05-03T00:55:22.537Z,1008.95
2018-05-03T00:56:22.604Z,1008.97
2018-05-03T00:57:22.669Z,1008.97
2018-05-03T00:58:22.725Z,1009.02
2018-05-03T00:59:22.789Z,1008.98
2018-05-03T01:00:22.852Z,1008.98
2018-05-03T01:01:22.925Z,1008.97
2018-05-03T01:02:22.989Z,1008.97
2018-05-03T01:03:23.047Z,1008.96
2018-05-03T01:04:23.108Z,1009.00
2018-05-03T01:05:23.173Z,1009.03
2018-05-03T01:06:23.257Z,1009.03
2018-05-03T01:07:23.301Z,1009.02
2018-05-03T01:08:23.365Z,1009.00
2018-05-03T01:09:23.425Z,1009.00
2018-05-03T01:10:23.497Z,1008.99
2018-05-03T01:11:23.561Z,1008.98
2018-05-03T01:12:23.625Z,1009.00
2018-05-03T01:13:23.685Z,1008.99
2018-05-03T01:14:23.749Z,1009.00
2018-05-03T01:15:23.809Z,1008.98
2018-05-03T01:16:23.881Z,1008.94
2018-05-03T01:17:23.941Z,1008.97
2018-05-03T01:18:24.001Z,1008.95
2018-05-03T01:19:24.066Z,1008.95
2018-05-03T01:20:24.129Z,1008.99
2018-05-03T01:21:24.301Z,1008.98
2018-05-03T01:22:24.253Z,1009.06
2018-05-03T01:23:24.321Z,1009.06
2018-05-03T01:24:24.382Z,1009.06
2018-05-03T01:25:24.445Z,1009.13
2018-05-03T01:26:24.518Z,1009.08
2018-05-03T01:27:24.583Z,1009.08
2018-05-03T01:28:24.637Z,1009.07
2018-05-03T01:29:24.706Z,1009.04
2018-05-03T01:30:24.765Z,1009.04
2018-05-03T01:31:24.834Z,1009.02
2018-05-03T01:32:24.901Z,1009.04
2018-05-03T01:33:24.954Z,1009.04
2018-05-03T01:34:25.019Z,1009.02
2018-05-03T01:35:25.083Z,1009.03
2018-05-03T01:36:25.163Z,1008.98
2018-05-03T01:37:25.210Z,1009.05
2018-05-03T01:38:25.273Z,1009.09
2018-05-03T01:39:25.338Z,1009.06
2018-05-03T01:40:25.402Z,1009.07
2018-05-03T01:41:25.470Z,1009.08
2018-05-03T01:42:25.535Z,1009.02
2018-05-03T01:43:25.604Z,1009.07
2018-05-03T01:44:25.658Z,1009.07
2018-05-03T01:45:25.718Z,1009.09
2018-05-03T01:46:25.794Z,1009.11
2018-05-03T01:47:25.858Z,1009.08
2018-05-03T01:48:25.910Z,1009.11
2018-05-03T01:49:25.975Z,1009.12
2018-05-03T01:50:26.040Z,1009.16
2018-05-03T01:51:26.116Z,1009.16
2018-05-03T01:52:26.166Z,1009.16
2018-05-03T01:53:26.230Z,1009.13
2018-05-03T01:54:26.291Z,1009.14
2018-05-03T01:55:26.355Z,1009.14
2018-05-03T01:56:26.426Z,1009.24
2018-05-03T01:57:26.491Z,1009.22
2018-05-03T01:58:26.548Z,1009.23
2018-05-03T01:59:26.613Z,1009.24
2018-05-03T02:00:26.677Z,1009.27
2018-05-03T02:01:26.744Z,1009.27
2018-05-03T02:02:26.810Z,1009.24
2018-05-03T02:03:26.867Z,1009.25
2018-05-03T02:04:26.923Z,1009.21
2018-05-03T02:05:26.991Z,1009.26
2018-05-03T02:06:27.063Z,1009.30
2018-05-03T02:07:27.127Z,1009.30
2018-05-03T02:08:27.187Z,1009.38
2018-05-03T02:09:27.247Z,1009.40
2018-05-03T02:10:27.312Z,1009.44
2018-05-03T02:11:27.532Z,1009.45
2018-05-03T02:12:27.436Z,1009.44
2018-05-03T02:13:27.495Z,1009.46
2018-05-03T02:14:27.564Z,1009.49
2018-05-03T02:15:27.628Z,1009.48
2018-05-03T02:16:27.700Z,1009.49
2018-05-03T02:17:27.760Z,1009.51
2018-05-03T02:18:27.820Z,1009.51
2018-05-03T02:19:27.880Z,1009.55
2018-05-03T02:20:27.944Z,1009.57
2018-05-03T02:21:28.018Z,1009.63
2018-05-03T02:22:28.080Z,1009.60
2018-05-03T02:23:28.136Z,1009.64
2018-05-03T02:24:28.203Z,1009.65
2018-05-03T02:25:28.320Z,1009.73
2018-05-03T02:26:29.140Z,1009.72
2018-05-03T02:27:28.420Z,1009.79
2018-05-03T02:28:28.472Z,1009.78
2018-05-03T02:29:28.528Z,1009.77
2018-05-03T02:30:28.600Z,1009.85
2018-05-03T02:31:28.664Z,1009.83
2018-05-03T02:32:28.775Z,1009.85
2018-05-03T02:33:28.785Z,1009.89
2018-05-03T02:34:28.859Z,1009.86
2018-05-03T02:35:28.980Z,1009.89
2018-05-03T02:36:29.005Z,1009.88
2018-05-03T02:37:29.049Z,1009.86
2018-05-03T02:38:29.097Z,1009.91
2018-05-03T02:39:29.153Z,1009.89
2018-05-03T02:40:29.225Z,1009.90
2018-05-03T02:41:29.277Z,1009.89
2018-05-03T02:42:29.399Z,1009.89
2018-05-03T02:43:29.441Z,1009.92
2018-05-03T02:44:29.474Z,1009.91
2018-05-03T02:45:29.533Z,1009.89
2018-05-03T02:46:29.602Z,1009.91
2018-05-03T02:47:29.673Z,1009.93
2018-05-03T02:48:29.734Z,1009.91
2018-05-03T02:49:29.790Z,1009.98
2018-05-03T02:50:29.849Z,1009.96
2018-05-03T02:51:29.914Z,1009.98
2018-05-03T02:52:29.993Z,1009.98
2018-05-03T02:53:30.062Z,1009.99
2018-05-03T02:54:30.110Z,1010.06
2018-05-03T02:55:30.171Z,1010.05
2018-05-03T02:56:30.234Z,1010.05
2018-05-03T02:57:30.293Z,1010.00
2018-05-03T02:58:30.718Z,1010.06
2018-05-03T02:59:30.422Z,1010.07
2018-05-03T03:00:30.503Z,1010.09
2018-05-03T03:01:30.862Z,1010.11
2018-05-03T03:02:30.753Z,1010.15
2018-05-03T03:03:30.707Z,1010.17
2018-05-03T03:04:30.775Z,1010.13
2018-05-03T03:05:30.822Z,1010.17
2018-05-03T03:06:30.880Z,1010.23
2018-05-03T03:07:31.655Z,1010.23
2018-05-03T03:08:30.999Z,1010.29
2018-05-03T03:09:31.090Z,1010.29
2018-05-03T03:10:31.126Z,1010.33
2018-05-03T03:11:31.190Z,1010.31
2018-05-03T03:12:31.258Z,1010.34
2018-05-03T03:13:31.315Z,1010.32
2018-05-03T03:14:31.522Z,1010.36
2018-05-03T03:15:31.449Z,1010.34
2018-05-03T03:16:31.511Z,1010.34
2018-05-03T03:17:31.588Z,1010.40
2018-05-03T03:18:31.635Z,1010.38
2018-05-03T03:19:31.699Z,1010.38
2018-05-03T03:20:31.763Z,1010.42
2018-05-03T03:21:31.831Z,1010.38
2018-05-03T03:22:31.883Z,1010.41
2018-05-03T03:23:31.951Z,1010.42
2018-05-03T03:24:32.028Z,1010.41
2018-05-03T03:25:32.083Z,1010.41
2018-05-03T03:26:32.146Z,1010.39
2018-05-03T03:27:32.236Z,1010.41
2018-05-03T03:28:32.299Z,1010.41
2018-05-03T03:29:32.355Z,1010.45
2018-05-03T03:30:32.411Z,1010.48
2018-05-03T03:31:32.475Z,1010.49
2018-05-03T03:32:32.520Z,1010.52
2018-05-03T03:33:32.639Z,1010.57
2018-05-03T03:34:32.652Z,1010.56
2018-05-03T03:35:32.720Z,1010.59
2018-05-03T03:36:32.768Z,1010.58
2018-05-03T03:37:32.840Z,1010.59
2018-05-03T03:38:32.904Z,1010.57
2018-05-03T03:39:32.980Z,1010.62
2018-05-03T03:40:33.032Z,1010.64
2018-05-03T03:41:33.091Z,1010.62
2018-05-03T03:42:33.152Z,1010.63
2018-05-03T03:43:33.215Z,1010.69
2018-05-03T03:44:33.280Z,1010.66
2018-05-03T03:45:33.359Z,1010.61
2018-05-03T03:46:33.564Z,1010.63
2018-05-03T03:47:33.568Z,1010.61
2018-05-03T03:48:33.560Z,1010.63
2018-05-03T03:49:33.592Z,1010.64
2018-05-03T03:50:33.672Z,1010.66
2018-05-03T03:51:33.740Z,1010.66
2018-05-03T03:52:33.832Z,1010.63
2018-05-03T03:53:33.868Z,1010.70
2018-05-03T03:54:33.916Z,1010.66
2018-05-03T03:55:33.996Z,1010.69
2018-05-03T03:56:34.052Z,1010.69
2018-05-03T03:57:34.108Z,1010.72
2018-05-03T03:58:34.168Z,1010.69
2018-05-03T03:59:34.243Z,1010.72
2018-05-03T04:00:34.608Z,1010.70
2018-05-03T04:01:34.360Z,1010.72
2018-05-03T04:02:34.420Z,1010.74
2018-05-03T04:03:34.492Z,1010.66
2018-05-03T04:04:34.556Z,1010.73
2018-05-03T04:05:34.631Z,1010.69
2018-05-03T04:06:34.696Z,1010.69
2018-05-03T04:07:34.745Z,1010.71
2018-05-03T04:08:34.809Z,1010.75
2018-05-03T04:09:34.872Z,1010.76
2018-05-03T04:10:34.937Z,1010.75
2018-05-03T04:11:35.001Z,1010.75
2018-05-03T04:12:35.096Z,1010.74
2018-05-03T04:13:35.120Z,1010.79
2018-05-03T04:14:35.186Z,1010.79
2018-05-03T04:15:35.253Z,1010.77
2018-05-03T04:16:35.649Z,1010.83
2018-05-03T04:17:35.377Z,1010.83
2018-05-03T04:18:35.441Z,1010.86
2018-05-03T04:19:35.509Z,1010.86
2018-05-03T04:20:35.575Z,1010.87
2018-05-03T04:21:35.637Z,1010.92
2018-05-03T04:22:35.706Z,1010.90
2018-05-03T04:23:35.757Z,1010.96
2018-05-03T04:24:35.825Z,1010.97
2018-05-03T04:25:35.890Z,1011.00
2018-05-03T04:26:35.958Z,1011.03
2018-05-03T04:27:36.026Z,1011.06
2018-05-03T04:28:36.087Z,1011.06
2018-05-03T04:29:36.142Z,1011.06
2018-05-03T04:30:36.225Z,1011.08
2018-05-03T04:31:36.270Z,1011.05
2018-05-03T04:32:36.362Z,1011.10
2018-05-03T04:33:36.390Z,1011.07
2018-05-03T04:34:36.530Z,1011.03
2018-05-03T04:35:36.526Z,1011.10
2018-05-03T04:36:36.605Z,1011.13
2018-05-03T04:37:36.651Z,1011.17
2018-05-03T04:38:36.717Z,1011.21
2018-05-03T04:39:36.775Z,1011.23
2018-05-03T04:40:36.835Z,1011.26
2018-05-03T04:41:36.898Z,1011.28
2018-05-03T04:42:36.970Z,1011.32
2018-05-03T04:43:37.039Z,1011.34
2018-05-03T04:44:37.095Z,1011.39
2018-05-03T04:45:37.159Z,1011.38
2018-05-03T04:46:37.214Z,1011.45
2018-05-03T04:47:37.299Z,1011.46
2018-05-03T04:48:37.407Z,1011.48
2018-05-03T04:49:37.407Z,1011.47
2018-05-03T04:50:37.471Z,1011.47
2018-05-03T04:51:37.535Z,1011.46
2018-05-03T04:52:37.627Z,1011.49
2018-05-03T04:53:37.670Z,1011.50
2018-05-03T04:54:37.723Z,1011.54
2018-05-03T04:55:37.790Z,1011.59
2018-05-03T04:56:37.855Z,1011.64
2018-05-03T04:57:37.923Z,1011.65
2018-05-03T04:58:37.987Z,1011.70
2018-05-03T04:59:38.043Z,1011.71
2018-05-03T05:00:38.130Z,1011.79
2018-05-03T05:01:38.187Z,1011.78
2018-05-03T05:02:38.399Z,1011.79
2018-05-03T05:03:38.287Z,1011.78
2018-05-03T05:04:38.413Z,1011.82
2018-05-03T05:05:38.423Z,1011.83
2018-05-03T05:06:38.515Z,1011.88
2018-05-03T05:07:38.555Z,1011.93
2018-05-03T05:08:38.623Z,1011.95
2018-05-03T05:09:38.675Z,1011.96
2018-05-03T05:10:38.908Z,1012.06
2018-05-03T05:11:38.799Z,1012.05
2018-05-03T05:12:38.876Z,1012.01
2018-05-03T05:13:39.200Z,1012.11
2018-05-03T05:14:38.988Z,1012.10
2018-05-03T05:15:39.052Z,1012.12
2018-05-03T05:16:39.116Z,1012.16
2018-05-03T05:17:39.180Z,1012.19
2018-05-03T05:18:39.402Z,1012.23
2018-05-03T05:19:39.308Z,1012.26
2018-05-03T05:20:39.368Z,1012.29
2018-05-03T05:21:39.432Z,1012.27
2018-05-03T05:22:39.500Z,1012.27
2018-05-03T05:23:39.568Z,1012.26
2018-05-03T05:24:39.635Z,1012.31
2018-05-03T05:25:39.688Z,1012.30
2018-05-03T05:26:39.748Z,1012.33
2018-05-03T05:27:39.812Z,1012.35
2018-05-03T05:28:39.886Z,1012.32
2018-05-03T05:29:39.948Z,1012.38
2018-05-03T05:30:40.037Z,1012.39
2018-05-03T05:31:40.069Z,1012.41
2018-05-03T05:32:40.132Z,1012.43
2018-05-03T05:33:40.212Z,1012.41
2018-05-03T05:34:40.260Z,1012.46
2018-05-03T05:35:40.324Z,1012.49
2018-05-03T05:36:40.388Z,1012.50
2018-05-03T05:37:40.453Z,1012.54
2018-05-03T05:38:40.541Z,1012.58
2018-05-03T05:39:40.585Z,1012.61
2018-05-03T05:40:40.645Z,1012.63
2018-05-03T05:41:40.705Z,1012.63
2018-05-03T05:42:40.768Z,1012.72
2018-05-03T05:43:40.840Z,1012.71
2018-05-03T05:44:40.908Z,1012.68
2018-05-03T05:45:40.961Z,1012.72
2018-05-03T05:46:41.025Z,1012.73
2018-05-03T05:47:41.093Z,1012.76
2018-05-03T05:48:41.221Z,1012.78
2018-05-03T05:49:41.221Z,1012.78
2018-05-03T05:50:41.285Z,1012.75
2018-05-03T05:51:41.352Z,1012.77
2018-05-03T05:52:41.413Z,1012.79
2018-05-03T05:53:41.481Z,1012.79
2018-05-03T05:54:41.545Z,1012.79
2018-05-03T05:55:41.606Z,1012.82
2018-05-03T05:56:41.718Z,1012.84
2018-05-03T05:57:41.734Z,1012.86
2018-05-03T05:58:41.807Z,1012.89
2018-05-03T05:59:41.869Z,1012.89
2018-05-03T06:00:41.925Z,1012.88
2018-05-03T06:01:41.991Z,1012.93
2018-05-03T06:02:42.054Z,1012.93
2018-05-03T06:03:42.134Z,1012.95
2018-05-03T06:04:42.186Z,1012.95
2018-05-03T06:05:42.252Z,1012.98
2018-05-03T06:06:42.314Z,1012.94
2018-05-03T06:07:42.378Z,1012.97
2018-05-03T06:08:42.450Z,1012.98
2018-05-03T06:09:42.514Z,1012.99
2018-05-03T06:10:42.570Z,1013.03
2018-05-03T06:11:42.634Z,1013.06
2018-05-03T06:12:42.702Z,1013.05
2018-05-03T06:13:42.770Z,1013.07
2018-05-03T06:14:42.839Z,1013.07
2018-05-03T06:15:42.894Z,1013.08
2018-05-03T06:16:42.958Z,1013.07
2018-05-03T06:17:43.023Z,1013.10
2018-05-03T06:18:43.223Z,1013.09
2018-05-03T06:19:43.154Z,1013.11
2018-05-03T06:20:43.218Z,1013.11
2018-05-03T06:21:43.283Z,1013.17
2018-05-03T06:22:43.346Z,1013.18
2018-05-03T06:23:43.418Z,1013.21
2018-05-03T06:24:43.482Z,1013.20
2018-05-03T06:25:43.543Z,1013.20
2018-05-03T06:26:43.607Z,1013.27
2018-05-03T06:27:43.671Z,1013.28
2018-05-03T06:28:43.743Z,1013.27
2018-05-03T06:29:43.807Z,1013.32
2018-05-03T06:30:43.867Z,1013.35
2018-05-03T06:31:43.934Z,1013.33
2018-05-03T06:32:43.995Z,1013.32
2018-05-03T06:33:44.067Z,1013.31
2018-05-03T06:34:44.131Z,1013.32
2018-05-03T06:35:44.191Z,1013.32
2018-05-03T06:36:44.255Z,1013.37
2018-05-03T06:37:44.322Z,1013.36
2018-05-03T06:38:44.399Z,1013.42
2018-05-03T06:39:44.455Z,1013.45
2018-05-03T06:40:44.515Z,1013.46
2018-05-03T06:41:44.588Z,1013.51
2018-05-03T06:42:44.646Z,1013.78
2018-05-03T06:43:44.715Z,1014.20
2018-05-03T06:44:44.784Z,1015.25
2018-05-03T06:45:44.844Z,1015.31
2018-05-03T06:46:44.932Z,1015.44
2018-05-03T06:47:44.976Z,1015.51
2018-05-03T06:48:45.056Z,1015.46
2018-05-03T06:49:45.120Z,1015.41
2018-05-03T06:50:45.180Z,1015.41
2018-05-03T06:51:45.252Z,1015.20
2018-05-03T06:52:45.319Z,1014.67
2018-05-03T06:53:45.403Z,1013.79
2018-05-03T06:54:45.459Z,1013.61
2018-05-03T06:55:45.528Z,1013.59
2018-05-03T06:56:45.609Z,1013.56
2018-05-03T06:57:45.668Z,1013.66
2018-05-03T06:58:45.746Z,1014.03
2018-05-03T06:59:45.814Z,1014.23
2018-05-03T07:00:45.977Z,1014.53
2018-05-03T07:01:45.944Z,1015.09
2018-05-03T07:02:46.016Z,1015.55
2018-05-03T07:03:46.263Z,1015.56
2018-05-03T07:04:46.156Z,1015.55
2018-05-03T07:05:46.228Z,1015.63
2018-05-03T07:06:46.297Z,1015.69
2018-05-03T07:07:46.373Z,1015.49
2018-05-03T07:08:46.448Z,1015.24
2018-05-03T07:09:46.520Z,1014.72
2018-05-03T07:10:46.589Z,1014.75
2018-05-03T07:11:46.660Z,1014.94
2018-05-03T07:12:46.734Z,1015.24
2018-05-03T07:13:46.812Z,1014.96
2018-05-03T07:14:46.885Z,1014.91
2018-05-03T07:15:46.952Z,1014.91
2018-05-03T07:16:47.025Z,1014.66
2018-05-03T07:17:47.097Z,1014.51
2018-05-03T07:18:47.473Z,1014.33
2018-05-03T07:19:47.241Z,1014.47
2018-05-03T07:20:47.313Z,1014.61
2018-05-03T07:21:47.385Z,1015.14
2018-05-03T07:22:47.458Z,1015.20
2018-05-03T07:23:47.546Z,1015.37
2018-05-03T07:24:47.609Z,1015.52
2018-05-03T07:25:47.681Z,1015.20
2018-05-03T07:26:47.751Z,1014.77
2018-05-03T07:27:47.822Z,1014.56
2018-05-03T07:28:47.901Z,1014.51
2018-05-03T07:29:47.974Z,1014.57
2018-05-03T07:30:48.038Z,1014.95
2018-05-03T07:31:48.110Z,1014.55
2018-05-03T07:32:48.182Z,1014.51
2018-05-03T07:33:48.469Z,1014.76
2018-05-03T07:34:48.330Z,1014.63
2018-05-03T07:35:48.398Z,1014.86
2018-05-03T07:36:48.470Z,1015.05
2018-05-03T07:37:48.538Z,1014.96
2018-05-03T07:38:48.618Z,1014.98
2018-05-03T07:39:48.689Z,1015.08
2018-05-03T07:40:48.755Z,1014.90
2018-05-03T07:41:48.826Z,1014.82
2018-05-03T07:42:48.899Z,1014.85
2018-05-03T07:43:48.974Z,1014.77
2018-05-03T07:44:49.050Z,1014.75
2018-05-03T07:45:49.110Z,1014.88
2018-05-03T07:46:49.190Z,1014.87
2018-05-03T07:47:49.258Z,1014.96
2018-05-03T07:48:49.326Z,1015.40
2018-05-03T07:49:49.419Z,1015.15
2018-05-03T07:50:49.470Z,1015.21
2018-05-03T07:51:49.546Z,1015.01
2018-05-03T07:52:49.619Z,1015.32
2018-05-03T07:53:49.691Z,1014.97
2018-05-03T07:54:49.770Z,1014.95
2018-05-03T07:55:49.847Z,1015.07
2018-05-03T07:56:49.915Z,1014.89
2018-05-03T07:57:49.986Z,1014.76
2018-05-03T07:58:50.064Z,1014.36
2018-05-03T07:59:50.170Z,1014.74
2018-05-03T08:00:50.207Z,1015.18
2018-05-03T08:01:50.279Z,1014.89
2018-05-03T08:02:50.355Z,1014.66
2018-05-03T08:03:50.431Z,1014.51
2018-05-03T08:04:50.527Z,1014.64
2018-05-03T08:05:50.580Z,1014.76
2018-05-03T08:06:50.657Z,1014.67
2018-05-03T08:07:50.719Z,1014.79
2018-05-03T08:08:50.791Z,1014.71
2018-05-03T08:09:50.871Z,1014.92
2018-05-03T08:10:50.944Z,1014.76
2018-05-03T08:11:51.008Z,1015.37
2018-05-03T08:12:51.080Z,1015.29
2018-05-03T08:13:51.152Z,1015.14
2018-05-03T08:14:51.448Z,1015.25
2018-05-03T08:15:51.296Z,1015.05
2018-05-03T08:16:51.372Z,1015.03
2018-05-03T08:17:51.447Z,1014.73
2018-05-03T08:18:51.528Z,1014.80
2018-05-03T08:19:51.596Z,1014.74
2018-05-03T08:20:51.668Z,1014.64
2018-05-03T08:21:51.736Z,1014.73
2018-05-03T08:22:51.808Z,1014.91
2018-05-03T08:23:51.880Z,1014.94
2018-05-03T08:24:51.956Z,1015.38
2018-05-03T08:25:52.024Z,1015.05
2018-05-03T08:26:52.092Z,1014.88
2018-05-03T08:27:52.168Z,1014.83
2018-05-03T08:28:52.238Z,1014.74
2018-05-03T08:29:52.332Z,1014.83
2018-05-03T08:30:52.380Z,1014.67
2018-05-03T08:31:52.507Z,1014.80
2018-05-03T08:32:52.532Z,1014.81
2018-05-03T08:33:52.596Z,1014.66
2018-05-03T08:34:52.673Z,1014.87
2018-05-03T08:35:52.740Z,1014.86
2018-05-03T08:36:52.812Z,1014.98
2018-05-03T08:37:52.881Z,1014.84
2018-05-03T08:38:52.962Z,1015.05
2018-05-03T08:39:53.025Z,1015.06
2018-05-03T08:40:53.097Z,1015.08
2018-05-03T08:41:53.160Z,1015.07
2018-05-03T08:42:53.228Z,1015.21
2018-05-03T08:43:53.311Z,1015.19
2018-05-03T08:44:53.389Z,1015.23
2018-05-03T08:45:53.450Z,1015.35
2018-05-03T08:46:53.514Z,1015.79
2018-05-03T08:47:53.586Z,1015.50
2018-05-03T08:48:53.653Z,1015.57
2018-05-03T08:49:53.729Z,1015.70
2018-05-03T08:50:53.801Z,1015.43
2018-05-03T08:51:53.865Z,1015.90
2018-05-03T08:52:53.937Z,1015.80
2018-05-03T08:53:54.009Z,1015.53
2018-05-03T08:54:54.093Z,1015.43
2018-05-03T08:55:54.149Z,1015.53
2018-05-03T08:56:54.217Z,1015.66
2018-05-03T08:57:54.297Z,1015.79
2018-05-03T08:58:54.373Z,1015.78
2018-05-03T08:59:54.447Z,1015.54
2018-05-03T09:00:54.517Z,1015.61
2018-05-03T09:01:54.616Z,1015.41
2018-05-03T09:02:54.655Z,1015.31
2018-05-03T09:03:54.725Z,1015.23
2018-05-03T09:04:54.806Z,1015.35
2018-05-03T09:05:54.874Z,1015.27
2018-05-03T09:06:54.942Z,1015.23
2018-05-03T09:07:55.049Z,1015.19
2018-05-03T09:08:55.086Z,1015.27
2018-05-03T09:09:55.170Z,1015.18
2018-05-03T09:10:55.230Z,1015.20
2018-05-03T09:11:55.302Z,1015.19
2018-05-03T09:12:55.373Z,1015.21
2018-05-03T09:13:55.446Z,1015.21
2018-05-03T09:14:55.526Z,1015.26
2018-05-03T09:15:55.594Z,1015.27
2018-05-03T09:16:55.662Z,1015.30
2018-05-03T09:17:55.730Z,1015.39
2018-05-03T09:18:55.802Z,1015.27
2018-05-03T09:19:55.882Z,1015.31
2018-05-03T09:20:55.954Z,1015.29
2018-05-03T09:21:56.018Z,1015.18
2018-05-03T09:22:56.094Z,1015.15
2018-05-03T09:23:56.166Z,1015.14
2018-05-03T09:24:56.302Z,1015.20
2018-05-03T09:25:56.306Z,1015.17
2018-05-03T09:26:56.406Z,1015.15
2018-05-03T09:27:56.450Z,1015.22
2018-05-03T09:28:56.522Z,1015.24
2018-05-03T09:29:56.602Z,1015.23
2018-05-03T09:30:56.678Z,1015.25
2018-05-03T09:31:56.738Z,1015.20
2018-05-03T09:32:56.810Z,1015.19
2018-05-03T09:33:56.878Z,1015.23
2018-05-03T09:34:56.958Z,1015.20
2018-05-03T09:35:57.032Z,1015.21
2018-05-03T09:36:57.094Z,1015.21
2018-05-03T09:37:57.166Z,1015.15
2018-05-03T09:38:57.238Z,1015.16
2018-05-03T09:39:57.323Z,1015.21
2018-05-03T09:40:57.378Z,1015.27
2018-05-03T09:41:57.455Z,1015.28
2018-05-03T09:42:57.518Z,1015.28
2018-05-03T09:43:57.590Z,1015.28
2018-05-03T09:44:57.670Z,1015.23
2018-05-03T09:45:57.739Z,1015.22
2018-05-03T09:46:57.803Z,1015.18
2018-05-03T09:47:57.875Z,1015.12
2018-05-03T09:48:57.947Z,1015.13
2018-05-03T09:49:58.035Z,1015.11
2018-05-03T09:50:58.099Z,1015.18
2018-05-03T09:51:58.172Z,1015.15
2018-05-03T09:52:58.267Z,1015.26
2018-05-03T09:53:58.303Z,1015.23
2018-05-03T09:54:58.387Z,1015.19
2018-05-03T09:55:58.463Z,1015.19
2018-05-03T09:56:58.527Z,1015.26
2018-05-03T09:57:58.599Z,1015.25
2018-05-03T09:58:58.651Z,1015.27
2018-05-03T09:59:58.744Z,1015.23
2018-05-03T10:00:58.819Z,1015.31
2018-05-03T10:01:58.871Z,1015.30
2018-05-03T10:02:58.932Z,1015.38
2018-05-03T10:03:59.003Z,1015.34
2018-05-03T10:04:59.332Z,1015.30
2018-05-03T10:05:59.156Z,1015.34
2018-05-03T10:06:59.212Z,1015.26
2018-05-03T10:07:59.288Z,1015.25
2018-05-03T10:08:59.356Z,1015.26
2018-05-03T10:09:59.440Z,1015.30
2018-05-03T10:10:59.528Z,1015.23
2018-05-03T10:11:59.564Z,1015.28
2018-05-03T10:12:59.644Z,1015.25
2018-05-03T10:13:59.720Z,1015.26
2018-05-03T10:14:59.792Z,1015.22
2018-05-03T10:15:59.868Z,1015.22
2018-05-03T10:16:59.920Z,1015.22
2018-05-03T10:17:59.997Z,1015.22
2018-05-03T10:19:00.076Z,1015.23
2018-05-03T10:20:00.420Z,1015.26
2018-05-03T10:21:00.219Z,1015.24
2018-05-03T10:22:00.272Z,1015.22
2018-05-03T10:23:00.361Z,1015.23
2018-05-03T10:24:00.413Z,1015.23
2018-05-03T10:25:00.492Z,1015.15
2018-05-03T10:26:00.578Z,1015.16
2018-05-03T10:27:00.628Z,1015.18
2018-05-03T10:28:00.705Z,1015.16
2018-05-03T10:29:00.769Z,1015.13
2018-05-03T10:30:00.901Z,1015.13
2018-05-03T10:31:00.936Z,1015.14
2018-05-03T10:32:00.993Z,1015.12
2018-05-03T10:33:01.061Z,1015.11
2018-05-03T10:34:01.121Z,1015.09
2018-05-03T10:35:01.201Z,1015.10
2018-05-03T10:36:01.490Z,1015.09
2018-05-03T10:37:01.344Z,1015.10
2018-05-03T10:38:01.409Z,1015.06
2018-05-03T10:39:01.473Z,1015.02
2018-05-03T10:40:01.553Z,1015.03
2018-05-03T10:41:01.633Z,1015.07
2018-05-03T10:42:01.776Z,1015.04
2018-05-03T10:43:01.785Z,1014.99
2018-05-03T10:44:01.829Z,1015.00
2018-05-03T10:45:01.897Z,1014.97
2018-05-03T10:46:01.998Z,1014.98
2018-05-03T10:47:02.048Z,1015.02
2018-05-03T10:48:02.106Z,1015.00
2018-05-03T10:49:02.247Z,1014.99
2018-05-03T10:50:02.246Z,1015.00
2018-05-03T10:51:02.342Z,1014.99
2018-05-03T10:52:02.386Z,1015.01
2018-05-03T10:53:02.455Z,1015.01
2018-05-03T10:54:02.522Z,1015.00
2018-05-03T10:55:02.602Z,1014.98
2018-05-03T10:56:02.677Z,1014.90
2018-05-03T10:57:02.738Z,1014.89
2018-05-03T10:58:02.806Z,1014.99
2018-05-03T10:59:02.869Z,1015.02
2018-05-03T11:00:02.954Z,1015.02
2018-05-03T11:01:03.029Z,1014.98
2018-05-03T11:02:03.101Z,1014.97
2018-05-03T11:03:03.162Z,1014.95
2018-05-03T11:04:03.266Z,1015.00
2018-05-03T11:05:03.286Z,1015.00
2018-05-03T11:06:03.371Z,1015.00
2018-05-03T11:07:03.434Z,1015.00
2018-05-03T11:08:03.491Z,1014.99
2018-05-03T11:09:03.567Z,1014.96
2018-05-03T11:10:03.634Z,1014.96
2018-05-03T11:11:03.732Z,1014.96
2018-05-03T11:12:03.822Z,1014.93
2018-05-03T11:13:03.842Z,1014.96
2018-05-03T11:14:03.914Z,1014.88
2018-05-03T11:15:03.982Z,1014.91
2018-05-03T11:16:04.062Z,1014.88
2018-05-03T11:17:04.134Z,1014.84
2018-05-03T11:18:04.246Z,1014.86
2018-05-03T11:19:04.260Z,1014.88
2018-05-03T11:20:04.330Z,1014.95
2018-05-03T11:21:04.582Z,1014.96
2018-05-03T11:22:04.466Z,1014.88
2018-05-03T11:23:04.540Z,1014.96
2018-05-03T11:24:04.610Z,1014.94
2018-05-03T11:25:04.679Z,1015.00
2018-05-03T11:26:04.751Z,1014.90
2018-05-03T11:27:04.830Z,1014.93
2018-05-03T11:28:04.890Z,1014.87
2018-05-03T11:29:04.954Z,1014.93
2018-05-03T11:30:05.026Z,1014.91
2018-05-03T11:31:05.123Z,1014.92
2018-05-03T11:32:05.162Z,1014.90
2018-05-03T11:33:05.226Z,1014.91
2018-05-03T11:34:05.303Z,1014.93
2018-05-03T11:35:05.375Z,1014.93
2018-05-03T11:36:05.450Z,1014.88
2018-05-03T11:37:05.526Z,1014.87
2018-05-03T11:38:05.579Z,1014.91
2018-05-03T11:39:05.647Z,1014.90
2018-05-03T11:40:05.719Z,1014.89
2018-05-03T11:41:05.795Z,1014.87
2018-05-03T11:42:05.868Z,1014.98
2018-05-03T11:43:05.930Z,1015.00
2018-05-03T11:44:05.996Z,1015.01
2018-05-03T11:45:06.071Z,1015.02
2018-05-03T11:46:06.291Z,1015.02
2018-05-03T11:47:06.203Z,1015.10
2018-05-03T11:48:06.275Z,1015.00
2018-05-03T11:49:06.396Z,1015.02
2018-05-03T11:50:06.411Z,1015.01
2018-05-03T11:51:06.488Z,1015.05
2018-05-03T11:52:06.559Z,1015.01
2018-05-03T11:53:06.621Z,1015.02
2018-05-03T11:54:06.687Z,1015.01
2018-05-03T11:55:06.759Z,1015.03
2018-05-03T11:56:06.839Z,1015.02
2018-05-03T11:57:06.913Z,1015.16
2018-05-03T11:58:06.967Z,1015.00
2018-05-03T11:59:07.043Z,1015.02
2018-05-03T12:00:07.107Z,1015.07
2018-05-03T12:01:07.175Z,1015.02
2018-05-03T12:02:07.260Z,1015.06
2018-05-03T12:03:07.316Z,1014.99
2018-05-03T12:04:07.383Z,1015.02
2018-05-03T12:05:07.456Z,1015.03
2018-05-03T12:06:07.550Z,1015.05